createdAt,value
2019-04-05T00:00:35.750Z,8.13
2019-04-05T00:03:05.126Z,9.23
2019-04-05T00:05:34.861Z,8.53
2019-04-05T00:08:04.767Z,8.13
2019-04-05T00:10:34.421Z,7.80
2019-04-05T00:13:04.163Z,8.23
2019-04-05T00:15:34.034Z,7.60
2019-04-05T00:18:03.471Z,7.70
2019-04-05T00:20:32.959Z,8.73
2019-04-05T00:23:02.347Z,8.40
2019-04-05T00:25:32.070Z,7.83
2019-04-05T00:28:01.576Z,8.03
2019-04-05T00:30:30.983Z,8.30
2019-04-05T00:33:00.609Z,11.13
2019-04-05T00:35:31.273Z,8.30
2019-04-05T00:38:00.921Z,7.73
2019-04-05T00:40:30.161Z,8.27
2019-04-05T00:42:59.527Z,9.07
2019-04-05T00:45:28.974Z,9.23
2019-04-05T00:47:58.386Z,9.10
2019-04-05T00:50:27.486Z,9.13
2019-04-05T00:52:56.873Z,10.13
2019-04-05T00:55:26.200Z,9.17
2019-04-05T00:57:55.311Z,9.80
2019-04-05T01:00:24.820Z,10.03
2019-04-05T01:02:54.279Z,10.40
2019-04-05T01:05:23.998Z,8.90
2019-04-05T01:07:53.371Z,9.73
2019-04-05T01:12:51.220Z,10.55
2019-04-05T01:15:21.011Z,10.43
2019-04-05T01:17:50.090Z,9.30
2019-04-05T01:20:19.437Z,10.20
2019-04-05T01:22:48.803Z,10.97
2019-04-05T01:25:18.855Z,10.57
2019-04-05T01:27:48.694Z,9.50
2019-04-05T01:30:18.225Z,8.70
2019-04-05T01:32:48.450Z,10.13
2019-04-05T01:35:17.749Z,11.50
2019-04-05T01:37:47.294Z,11.93
2019-04-05T01:40:16.608Z,9.13
2019-04-05T01:42:46.802Z,9.73
2019-04-05T01:45:15.874Z,10.73
2019-04-05T01:47:45.950Z,9.27
2019-04-05T01:50:15.721Z,11.20
2019-04-05T01:52:45.439Z,11.57
2019-04-05T01:55:14.640Z,10.37
2019-04-05T01:57:44.049Z,8.87
2019-04-05T02:00:13.780Z,10.03
2019-04-05T02:02:43.362Z,10.67
2019-04-05T02:05:12.988Z,10.87
2019-04-05T02:07:42.762Z,10.13
2019-04-05T02:10:13.746Z,8.93
2019-04-05T02:12:43.196Z,10.37
2019-04-05T02:15:23.612Z,10.33
2019-04-05T02:17:53.499Z,11.77
2019-04-05T02:20:24.203Z,10.23
2019-04-05T02:22:53.618Z,10.97
2019-04-05T02:25:23.074Z,9.77
2019-04-05T02:27:52.461Z,10.00
2019-04-05T02:30:21.600Z,10.83
2019-04-05T02:32:53.653Z,10.10
2019-04-05T02:35:23.362Z,10.83
2019-04-05T02:37:52.491Z,11.17
2019-04-05T02:40:23.201Z,11.90
2019-04-05T02:42:55.726Z,12.33
2019-04-05T02:45:27.570Z,12.33
2019-04-05T02:48:01.068Z,11.75
2019-04-05T02:50:32.480Z,11.55
2019-04-05T02:53:04.900Z,10.70
2019-04-05T02:55:35.441Z,13.40
2019-04-05T02:58:04.624Z,12.10
2019-04-05T03:00:34.787Z,12.03
2019-04-05T03:03:06.107Z,12.90
2019-04-05T03:05:36.374Z,11.20
2019-04-05T03:08:05.731Z,12.50
2019-04-05T03:11:08.821Z,12.27
2019-04-05T03:13:42.126Z,12.50
2019-04-05T03:16:17.578Z,12.07
2019-04-05T03:18:55.798Z,12.67
2019-04-05T03:21:27.635Z,14.23
2019-04-05T03:24:00.448Z,13.97
2019-04-05T03:26:33.607Z,12.70
2019-04-05T03:29:06.285Z,12.77
2019-04-05T03:31:36.879Z,12.33
2019-04-05T03:34:06.651Z,12.87
2019-04-05T03:36:36.858Z,13.67
2019-04-05T03:39:08.072Z,14.00
2019-04-05T03:41:38.040Z,13.30
2019-04-05T03:44:09.270Z,16.53
2019-04-05T03:46:55.218Z,15.50
2019-04-05T03:49:15.317Z,12.73
2019-04-05T03:51:46.052Z,14.10
2019-04-05T03:54:16.200Z,14.87
2019-04-05T03:56:46.214Z,14.07
2019-04-05T03:59:15.299Z,13.27
2019-04-05T04:01:45.392Z,13.67
2019-04-05T04:04:14.625Z,13.57
2019-04-05T04:06:46.396Z,15.80
2019-04-05T04:09:16.194Z,13.80
2019-04-05T04:11:49.135Z,14.25
2019-04-05T04:14:19.410Z,14.83
2019-04-05T04:16:49.847Z,12.97
2019-04-05T04:19:19.477Z,16.87
2019-04-05T04:22:28.486Z,14.10
2019-04-05T04:24:59.128Z,13.83
2019-04-05T04:27:30.293Z,13.23
2019-04-05T04:30:00.744Z,18.33
2019-04-05T04:32:32.816Z,14.83
2019-04-05T04:35:03.723Z,14.50
2019-04-05T04:37:35.812Z,15.23
2019-04-05T04:40:06.892Z,14.43
2019-04-05T04:42:38.423Z,15.27
2019-04-05T04:45:12.340Z,14.17
2019-04-05T04:47:41.827Z,17.40
2019-04-05T04:50:13.625Z,15.93
2019-04-05T04:52:44.394Z,18.03
2019-04-05T04:55:18.493Z,18.57
2019-04-05T04:57:51.070Z,18.90
2019-04-05T05:00:24.905Z,16.00
2019-04-05T05:02:58.088Z,19.80
2019-04-05T05:05:31.074Z,16.47
2019-04-05T05:08:01.579Z,19.77
2019-04-05T05:10:34.168Z,19.33
2019-04-05T05:13:09.738Z,22.90
2019-04-05T05:15:43.995Z,21.77
2019-04-05T05:18:13.255Z,21.03
2019-04-05T05:20:43.527Z,20.10
2019-04-05T05:23:12.881Z,24.43
2019-04-05T05:25:47.077Z,22.97
2019-04-05T05:28:16.886Z,19.03
2019-04-05T05:30:46.459Z,22.07
2019-04-05T05:33:16.829Z,21.27
2019-04-05T05:35:46.410Z,22.67
2019-04-05T05:38:16.941Z,22.07
2019-04-05T05:40:45.988Z,19.03
2019-04-05T05:43:15.922Z,20.77
2019-04-05T05:45:45.049Z,23.33
2019-04-05T05:48:14.746Z,26.17
2019-04-05T05:50:45.393Z,19.57
2019-04-05T05:53:15.099Z,25.73
2019-04-05T05:55:44.471Z,24.77
2019-04-05T05:58:23.536Z,21.40
2019-04-05T06:00:54.785Z,25.00
2019-04-05T06:03:24.480Z,22.97
2019-04-05T06:06:03.650Z,22.80
2019-04-05T06:08:28.882Z,23.10
2019-04-05T06:10:57.020Z,23.63
2019-04-05T06:13:27.026Z,23.30
2019-04-05T06:15:58.559Z,21.60
2019-04-05T06:18:28.233Z,22.97
2019-04-05T06:20:57.986Z,24.20
2019-04-05T06:23:33.522Z,26.97
2019-04-05T06:26:01.665Z,24.13
2019-04-05T06:28:31.102Z,23.70
2019-04-05T06:31:00.820Z,21.73
2019-04-05T06:33:31.904Z,24.77
2019-04-05T06:36:01.574Z,21.90
2019-04-05T06:38:31.878Z,24.17
2019-04-05T06:41:01.324Z,27.43
2019-04-05T06:43:30.425Z,27.13
2019-04-05T06:46:00.461Z,26.60
2019-04-05T06:48:32.652Z,27.80
2019-04-05T06:51:02.923Z,31.27
2019-04-05T06:53:34.134Z,26.60
2019-04-05T06:56:03.575Z,24.17
2019-04-05T06:58:33.076Z,27.00
2019-04-05T07:01:02.884Z,26.60
2019-04-05T07:03:33.118Z,30.43
2019-04-05T07:06:04.658Z,26.37
2019-04-05T07:08:35.934Z,30.33
2019-04-05T07:11:06.915Z,25.17
2019-04-05T07:13:36.537Z,26.20
2019-04-05T07:16:05.935Z,29.07
2019-04-05T07:18:36.335Z,23.93
2019-04-05T07:21:06.014Z,24.17
2019-04-05T07:23:35.387Z,25.63
2019-04-05T07:26:05.411Z,22.87
2019-04-05T07:28:37.703Z,23.77
2019-04-05T07:31:06.814Z,23.93
2019-04-05T07:33:36.310Z,22.00
2019-04-05T07:36:05.511Z,23.40
2019-04-05T07:38:34.739Z,26.50
2019-04-05T07:41:03.831Z,23.17
2019-04-05T07:43:33.812Z,22.97
2019-04-05T07:46:03.349Z,18.83
2019-04-05T07:48:44.240Z,20.27
2019-04-05T07:51:03.608Z,20.07
2019-04-05T07:53:33.367Z,24.18
2019-04-05T07:56:02.861Z,21.37
2019-04-05T07:58:32.282Z,20.40
2019-04-05T08:01:05.027Z,22.03
2019-04-05T08:03:34.500Z,18.57
2019-04-05T08:06:03.647Z,23.17
2019-04-05T08:08:52.057Z,20.90
2019-04-05T08:11:22.764Z,22.63
2019-04-05T08:13:55.042Z,23.27
2019-04-05T08:16:24.694Z,22.23
2019-04-05T08:18:57.933Z,20.70
2019-04-05T08:21:25.154Z,19.93
2019-04-05T08:23:55.617Z,23.77
2019-04-05T08:26:24.806Z,20.77
2019-04-05T08:28:54.422Z,19.90
2019-04-05T08:31:24.540Z,20.33
2019-04-05T08:33:54.079Z,20.00
2019-04-05T08:36:23.222Z,20.63
2019-04-05T08:38:54.141Z,14.77
2019-04-05T08:41:25.467Z,17.00
2019-04-05T08:43:54.978Z,15.50
2019-04-05T08:46:24.747Z,20.87
2019-04-05T08:48:54.486Z,17.07
2019-04-05T08:51:23.841Z,15.63
2019-04-05T08:53:53.255Z,18.40
2019-04-05T08:56:24.283Z,19.10
2019-04-05T08:58:53.519Z,18.73
2019-04-05T09:01:22.600Z,20.07
2019-04-05T09:03:52.011Z,18.37
2019-04-05T09:06:21.407Z,18.43
2019-04-05T09:09:06.467Z,21.23
2019-04-05T09:11:36.004Z,17.40
2019-04-05T09:14:05.096Z,18.20
2019-04-05T09:16:34.874Z,20.33
2019-04-05T09:19:04.231Z,19.37
2019-04-05T09:21:33.670Z,18.83
2019-04-05T09:24:03.379Z,16.17
2019-04-05T09:26:33.113Z,20.17
2019-04-05T09:29:02.453Z,20.00
2019-04-05T09:31:32.087Z,17.10
2019-04-05T09:34:01.693Z,17.90
2019-04-05T09:36:30.833Z,17.33
2019-04-05T09:39:00.405Z,21.50
2019-04-05T09:41:29.443Z,16.77
2019-04-05T09:43:58.890Z,17.37
2019-04-05T09:46:28.299Z,17.70
2019-04-05T09:48:57.704Z,17.53
2019-04-05T09:51:27.387Z,18.03
2019-04-05T09:53:57.092Z,19.33
2019-04-05T09:56:26.580Z,18.87
2019-04-05T09:58:55.998Z,18.33
2019-04-05T10:01:25.896Z,21.33
2019-04-05T10:03:55.297Z,18.90
2019-04-05T10:06:24.724Z,18.60
2019-04-05T10:16:22.694Z,19.23
2019-04-05T10:18:54.083Z,19.77
2019-04-05T10:21:24.078Z,19.90
2019-04-05T10:23:53.505Z,18.50
2019-04-05T10:26:22.989Z,19.60
2019-04-05T10:28:53.406Z,20.25
2019-04-05T10:31:22.878Z,19.17
2019-04-05T10:33:53.238Z,21.07
2019-04-05T10:36:25.617Z,20.17
2019-04-05T10:38:55.324Z,19.03
2019-04-05T10:41:25.189Z,20.77
2019-04-05T10:43:58.243Z,20.75
2019-04-05T10:46:27.609Z,19.17
2019-04-05T10:48:58.737Z,19.92
2019-04-05T10:51:30.398Z,19.98
2019-04-05T10:54:00.273Z,20.20
2019-04-05T10:56:29.812Z,19.80
2019-04-05T10:58:58.907Z,19.07
2019-04-05T11:01:28.627Z,18.23
2019-04-05T11:03:58.061Z,16.30
2019-04-05T11:06:29.564Z,15.07
2019-04-05T11:23:49.994Z,15.85
2019-04-05T11:58:48.639Z,18.67
2019-04-05T12:01:24.169Z,16.37
2019-04-05T12:48:37.025Z,17.98
2019-04-05T12:51:07.570Z,17.07
2019-04-05T12:53:37.130Z,17.95
2019-04-05T12:56:06.440Z,19.32
2019-04-05T12:58:38.649Z,19.43
2019-04-05T13:01:08.518Z,17.75
2019-04-05T13:03:37.880Z,18.92
2019-04-05T13:06:07.026Z,19.42
2019-04-05T13:08:36.807Z,18.92
2019-04-05T13:11:05.942Z,21.50
2019-04-05T13:13:35.896Z,15.53
2019-04-05T13:16:05.266Z,19.37
2019-04-05T13:18:36.057Z,21.23
2019-04-05T13:21:14.354Z,17.00
2019-04-05T13:23:36.604Z,17.67
2019-04-05T13:26:06.007Z,20.03
2019-04-05T13:28:36.390Z,17.60
2019-04-05T13:31:06.490Z,20.13
2019-04-05T13:33:37.018Z,19.67
2019-04-05T13:36:08.414Z,17.40
2019-04-05T13:38:38.619Z,19.87
2019-04-05T13:41:07.778Z,18.00
2019-04-05T13:43:37.233Z,18.67
2019-04-05T13:46:06.515Z,16.03
2019-04-05T13:48:37.659Z,17.77
2019-04-05T13:51:07.414Z,15.97
2019-04-05T13:53:38.425Z,18.23
2019-04-05T13:56:10.991Z,15.93
2019-04-05T14:01:11.386Z,16.87
2019-04-05T14:03:42.695Z,17.15
2019-04-05T14:06:12.548Z,17.82
2019-04-05T14:08:47.052Z,17.73
2019-04-05T14:11:16.293Z,19.30
2019-04-05T14:13:45.767Z,19.30
2019-04-05T14:16:15.284Z,19.65
2019-04-05T14:18:49.419Z,19.02
2019-04-05T14:21:16.373Z,18.25
2019-04-05T14:23:46.227Z,18.02
2019-04-05T14:26:15.322Z,15.53
2019-04-05T14:28:44.657Z,18.33
2019-04-05T14:31:17.499Z,15.00
2019-04-05T14:33:46.648Z,17.53
2019-04-05T14:36:15.914Z,17.47
2019-04-05T14:38:45.391Z,15.97
2019-04-05T14:41:14.563Z,17.40
2019-04-05T14:43:44.923Z,15.37
2019-04-05T14:46:14.734Z,16.13
2019-04-05T14:48:44.071Z,17.05
2019-04-05T14:51:13.899Z,17.70
2019-04-05T15:01:19.040Z,17.15
2019-04-05T15:06:18.685Z,17.40
2019-04-05T15:13:48.098Z,16.53
2019-04-05T15:16:18.229Z,13.57
2019-04-05T15:18:47.965Z,16.00
2019-04-05T15:21:20.953Z,21.43
2019-04-05T15:23:50.829Z,17.23
2019-04-05T15:26:21.550Z,17.67
2019-04-05T15:28:54.746Z,18.30
2019-04-05T15:31:26.482Z,19.95
2019-04-05T15:33:58.402Z,20.30
2019-04-05T15:39:06.184Z,18.03
2019-04-05T15:41:36.936Z,19.10
2019-04-05T15:44:06.737Z,16.47
2019-04-05T15:46:37.430Z,19.87
2019-04-05T15:49:06.683Z,19.83
2019-04-05T15:51:38.566Z,20.13
2019-04-05T15:54:08.641Z,21.10
2019-04-05T15:56:38.071Z,22.10
2019-04-05T15:59:08.242Z,22.00
2019-04-05T16:01:37.981Z,20.75
2019-04-05T16:04:07.605Z,20.30
2019-04-05T16:06:39.043Z,23.00
2019-04-05T16:09:11.567Z,24.27
2019-04-05T16:11:41.173Z,22.70
2019-04-05T16:14:12.839Z,20.50
2019-04-05T16:16:42.346Z,21.00
2019-04-05T16:19:11.705Z,26.90
2019-04-05T16:21:41.237Z,25.45
2019-04-05T16:24:11.036Z,24.87
2019-04-05T16:26:40.747Z,24.82
2019-04-05T16:29:11.227Z,26.48
2019-04-05T16:31:41.195Z,23.90
2019-04-05T16:34:11.355Z,26.87
2019-04-05T16:39:15.282Z,28.67
2019-04-05T16:41:45.321Z,26.03
2019-04-05T16:44:15.354Z,23.93
2019-04-05T16:46:44.863Z,28.33
2019-04-05T16:49:14.360Z,24.97
2019-04-05T16:51:43.570Z,30.27
2019-04-05T16:54:14.102Z,25.33
2019-04-05T16:56:43.874Z,23.23
2019-04-05T16:59:13.163Z,25.03
2019-04-05T17:01:42.591Z,23.83
2019-04-05T17:04:12.403Z,26.43
2019-04-05T17:06:41.911Z,24.73
2019-04-05T17:09:11.162Z,25.43
2019-04-05T17:11:41.662Z,23.30
2019-04-05T17:14:12.245Z,25.60
2019-04-05T17:16:45.472Z,26.17
2019-04-05T17:19:16.539Z,23.53
2019-04-05T17:21:48.053Z,25.10
2019-04-05T17:24:53.263Z,24.37
2019-04-05T17:27:22.818Z,27.63
2019-04-05T17:29:52.794Z,25.80
2019-04-05T17:32:23.272Z,24.80
2019-04-05T17:34:53.300Z,27.07
2019-04-05T17:37:26.431Z,22.00
2019-04-05T17:39:54.358Z,26.30
2019-04-05T17:42:24.315Z,25.03
2019-04-05T17:44:53.842Z,23.80
2019-04-05T17:47:25.332Z,25.33
2019-04-05T17:49:54.920Z,23.53
2019-04-05T17:52:24.142Z,24.47
2019-04-05T17:54:54.118Z,24.63
2019-04-05T17:57:23.536Z,24.63
2019-04-05T17:59:53.791Z,25.93
2019-04-05T18:02:23.230Z,26.27
2019-04-05T18:04:54.740Z,24.70
2019-04-05T18:07:24.336Z,28.80
2019-04-05T18:09:55.015Z,25.67
2019-04-05T18:12:24.250Z,25.70
2019-04-05T18:15:20.006Z,26.17
2019-04-05T18:17:50.176Z,28.17
2019-04-05T18:20:19.738Z,28.33
2019-04-05T18:22:49.509Z,27.00
2019-04-05T18:25:18.635Z,28.13
2019-04-05T18:27:48.676Z,28.47
2019-04-05T18:30:17.965Z,29.70
2019-04-05T18:32:52.735Z,27.87
2019-04-05T18:35:22.354Z,27.85
2019-04-05T18:37:52.975Z,27.33
2019-04-05T18:40:22.093Z,29.30
2019-04-05T18:42:52.054Z,28.23
2019-04-05T18:45:21.663Z,27.93
2019-04-05T18:47:52.389Z,26.43
2019-04-05T18:50:22.238Z,27.77
2019-04-05T18:52:51.550Z,27.80
2019-04-05T18:55:21.280Z,29.63
2019-04-05T18:57:51.455Z,29.70
2019-04-05T19:00:21.413Z,33.67
2019-04-05T19:02:51.341Z,31.10
2019-04-05T19:05:21.764Z,26.63
2019-04-05T19:07:51.706Z,27.00
2019-04-05T19:10:22.176Z,29.23
2019-04-05T19:12:52.222Z,31.83
2019-04-05T19:15:23.704Z,30.13
2019-04-05T19:17:53.267Z,28.10
2019-04-05T19:20:24.824Z,29.30
2019-04-05T19:22:54.381Z,30.13
2019-04-05T19:25:23.936Z,28.77
2019-04-05T19:27:54.097Z,33.47
2019-04-05T19:50:35.336Z,28.20
2019-04-05T19:53:05.688Z,27.63
2019-04-05T19:55:36.368Z,33.73
2019-04-05T19:58:05.763Z,30.50
2019-04-05T20:00:35.127Z,31.23
2019-04-05T20:03:05.106Z,28.70
2019-04-05T20:05:35.719Z,31.10
2019-04-05T20:08:04.847Z,33.20
2019-04-05T20:10:34.177Z,35.40
2019-04-05T20:13:03.333Z,31.13
2019-04-05T20:15:32.750Z,31.57
2019-04-05T20:18:02.260Z,28.47
2019-04-05T20:20:32.436Z,31.03
2019-04-05T20:23:02.158Z,33.13
2019-04-05T20:25:31.932Z,34.18
2019-04-05T20:28:01.714Z,33.98
2019-04-05T20:30:31.712Z,35.23
2019-04-05T20:52:51.063Z,32.55
2019-04-05T20:55:20.273Z,33.33
2019-04-05T20:57:50.121Z,34.92
2019-04-05T21:00:20.062Z,35.52
2019-04-05T21:02:49.391Z,31.25
2019-04-05T21:05:25.616Z,31.40
2019-04-05T21:07:52.191Z,34.70
2019-04-05T21:10:21.797Z,34.23
2019-04-05T21:12:50.887Z,32.50
2019-04-05T21:15:20.391Z,34.00
2019-04-05T21:17:49.878Z,32.38
2019-04-05T21:20:19.276Z,32.78
2019-04-05T21:22:48.481Z,33.95
2019-04-05T21:25:17.952Z,36.17
2019-04-05T21:27:47.408Z,32.93
2019-04-05T21:30:16.745Z,32.42
2019-04-05T21:32:48.870Z,35.03
2019-04-05T21:35:18.056Z,33.00
2019-04-05T21:37:48.266Z,34.38
2019-04-05T21:40:18.242Z,33.97
2019-04-05T21:42:49.975Z,29.77
2019-04-05T21:45:19.811Z,33.43
2019-04-05T21:47:48.958Z,31.87
2019-04-05T21:50:22.323Z,32.73
2019-04-05T21:52:51.495Z,31.73
2019-04-05T21:55:21.175Z,35.45
2019-04-05T21:57:50.516Z,34.83
2019-04-05T22:00:27.555Z,32.93
2019-04-05T22:02:56.816Z,34.37
2019-04-05T22:05:26.195Z,30.57
2019-04-05T22:07:55.894Z,33.38
2019-04-05T22:10:24.964Z,32.50
2019-04-05T22:12:54.160Z,34.43
2019-04-05T22:15:23.558Z,35.33
2019-04-05T22:17:56.352Z,36.98
2019-04-05T22:20:25.639Z,34.98
2019-04-05T22:22:55.240Z,33.58
2019-04-05T22:25:27.351Z,37.63
2019-04-05T22:27:58.199Z,32.23
2019-04-05T22:30:27.976Z,33.63
2019-04-05T22:33:00.820Z,35.58
2019-04-05T22:35:30.217Z,33.67
2019-04-05T22:37:59.476Z,30.70
2019-04-05T22:40:30.801Z,34.48
2019-04-05T22:43:05.527Z,30.55
2019-04-05T22:45:40.449Z,34.92
2019-04-05T22:48:10.077Z,33.75
2019-04-05T22:50:42.326Z,36.68
2019-04-05T22:53:12.187Z,34.60
2019-04-05T22:55:41.852Z,33.07
2019-04-05T22:58:14.656Z,34.65
2019-04-05T23:00:44.714Z,35.13
2019-04-05T23:03:14.556Z,33.87
2019-04-05T23:05:44.877Z,32.17
2019-04-05T23:08:15.102Z,33.18
2019-04-05T23:10:45.150Z,33.67
2019-04-05T23:13:14.674Z,33.48
2019-04-05T23:15:45.762Z,35.63
2019-04-05T23:18:19.789Z,35.17
2019-04-05T23:20:51.039Z,35.98
2019-04-05T23:23:20.838Z,35.95
2019-04-05T23:25:49.992Z,31.62
2019-04-05T23:28:19.094Z,35.68
2019-04-05T23:30:50.859Z,33.10
2019-04-05T23:33:21.531Z,34.70
2019-04-05T23:35:54.328Z,34.67
2019-04-05T23:38:23.614Z,33.78
2019-04-05T23:40:52.881Z,33.90
2019-04-05T23:43:22.478Z,34.23
2019-04-05T23:45:52.195Z,34.08
2019-04-05T23:48:21.744Z,32.53
2019-04-05T23:50:51.181Z,30.23
2019-04-05T23:53:21.174Z,30.20
2019-04-05T23:55:50.567Z,31.07
2019-04-05T23:58:20.004Z,33.20
